sensor_id;sensor_type;location;lat;lon;timestamp;pressure;altitude;pressure_sealevel;temperature;humidity
48352;BME280;34163;49.314;6.752;2022-12-18T00:01:35;100668.03;;;6.11;90.66
48352;BME280;34163;49.314;6.752;2022-12-18T00:04:04;100657.47;;;6.14;90.41
48352;BME280;34163;49.314;6.752;2022-12-18T00:06:29;100635.53;;;6.15;90.01
48352;BME280;34163;49.314;6.752;2022-12-18T00:08:55;100642.53;;;6.17;89.96
48352;BME280;34163;49.314;6.752;2022-12-18T00:11:22;100648.66;;;6.20;89.50
48352;BME280;34163;49.314;6.752;2022-12-18T00:13:48;100645.13;;;6.21;89.57
48352;BME280;34163;49.314;6.752;2022-12-18T00:16:14;100637.19;;;6.24;89.48
48352;BME280;34163;49.314;6.752;2022-12-18T00:18:40;100640.69;;;6.26;89.43
48352;BME280;34163;49.314;6.752;2022-12-18T00:21:09;100647.69;;;6.27;89.26
48352;BME280;34163;49.314;6.752;2022-12-18T00:23:36;100647.69;;;6.27;88.89
48352;BME280;34163;49.314;6.752;2022-12-18T00:26:02;100649.44;;;6.28;88.73
48352;BME280;34163;49.314;6.752;2022-12-18T00:28:28;100668.72;;;6.30;88.37
48352;BME280;34163;49.314;6.752;2022-12-18T00:31:03;100674.84;;;6.32;88.26
48352;BME280;34163;49.314;6.752;2022-12-18T00:33:28;100663.44;;;6.31;87.98
48352;BME280;34163;49.314;6.752;2022-12-18T00:35:54;100652.00;;;6.34;87.65
48352;BME280;34163;49.314;6.752;2022-12-18T00:38:22;100653.78;;;6.33;87.48
48352;BME280;34163;49.314;6.752;2022-12-18T00:40:47;100659.00;;;6.35;87.46
48352;BME280;34163;49.314;6.752;2022-12-18T00:43:15;100659.88;;;6.37;87.11
48352;BME280;34163;49.314;6.752;2022-12-18T00:45:41;100660.72;;;6.39;87.21
48352;BME280;34163;49.314;6.752;2022-12-18T00:48:06;100647.53;;;6.39;86.89
48352;BME280;34163;49.314;6.752;2022-12-18T00:50:31;100647.53;;;6.39;86.70
48352;BME280;34163;49.314;6.752;2022-12-18T00:52:56;100658.91;;;6.41;86.52
48352;BME280;34163;49.314;6.752;2022-12-18T00:55:22;100651.94;;;6.39;86.27
48352;BME280;34163;49.314;6.752;2022-12-18T00:57:47;100651.03;;;6.41;86.05
48352;BME280;34163;49.314;6.752;2022-12-18T01:00:13;100658.91;;;6.43;85.95
48352;BME280;34163;49.314;6.752;2022-12-18T01:02:42;100663.28;;;6.44;85.82
48352;BME280;34163;49.314;6.752;2022-12-18T01:05:08;100658.03;;;6.44;85.54
48352;BME280;34163;49.314;6.752;2022-12-18T01:07:33;100658.91;;;6.43;85.63
48352;BME280;34163;49.314;6.752;2022-12-18T01:09:58;100661.53;;;6.44;85.49
48352;BME280;34163;49.314;6.752;2022-12-18T01:12:24;100679.06;;;6.47;85.21
48352;BME280;34163;49.314;6.752;2022-12-18T01:14:49;100668.53;;;6.47;85.04
48352;BME280;34163;49.314;6.752;2022-12-18T01:17:14;100664.13;;;6.46;85.03
48352;BME280;34163;49.314;6.752;2022-12-18T01:19:40;100655.34;;;6.47;84.90
48352;BME280;34163;49.314;6.752;2022-12-18T01:22:05;100657.97;;;6.48;84.81
48352;BME280;34163;49.314;6.752;2022-12-18T01:24:33;100673.78;;;6.48;84.90
48352;BME280;34163;49.314;6.752;2022-12-18T01:26:58;100670.28;;;6.48;84.67
48352;BME280;34163;49.314;6.752;2022-12-18T01:29:23;100672.84;;;6.51;84.55
48352;BME280;34163;49.314;6.752;2022-12-18T01:31:48;100672.84;;;6.51;84.41
48352;BME280;34163;49.314;6.752;2022-12-18T01:34:14;100664.94;;;6.52;84.38
48352;BME280;34163;49.314;6.752;2022-12-18T01:36:39;100662.28;;;6.54;84.33
48352;BME280;34163;49.314;6.752;2022-12-18T01:39:10;100660.59;;;6.50;84.11
48352;BME280;34163;49.314;6.752;2022-12-18T01:41:36;100667.56;;;6.52;83.89
48352;BME280;34163;49.314;6.752;2022-12-18T01:47:15;100671.94;;;6.55;83.55
48352;BME280;34163;49.314;6.752;2022-12-18T01:49:43;100661.41;;;6.55;83.46
48352;BME280;34163;49.314;6.752;2022-12-18T01:52:08;100664.03;;;6.55;83.52
48352;BME280;34163;49.314;6.752;2022-12-18T01:54:33;100657.00;;;6.54;83.32
48352;BME280;34163;49.314;6.752;2022-12-18T01:56:58;100672.78;;;6.57;83.48
48352;BME280;34163;49.314;6.752;2022-12-18T01:59:25;100671.94;;;6.55;83.22
48352;BME280;34163;49.314;6.752;2022-12-18T02:01:51;100664.00;;;6.58;83.28
48352;BME280;34163;49.314;6.752;2022-12-18T02:04:24;100659.59;;;6.57;83.20
48352;BME280;34163;49.314;6.752;2022-12-18T02:06:51;100666.59;;;6.60;83.31
48352;BME280;34163;49.314;6.752;2022-12-18T02:09:20;100659.56;;;6.62;83.37
48352;BME280;34163;49.314;6.752;2022-12-18T02:11:51;100671.81;;;6.64;83.71
48352;BME280;34163;49.314;6.752;2022-12-18T02:16:55;100659.50;;;6.65;83.86
48352;BME280;34163;49.314;6.752;2022-12-18T02:26:59;100682.16;;;4.80;88.32
48352;BME280;34163;49.314;6.752;2022-12-18T02:29:31;100687.53;;;4.50;90.51
48352;BME280;34163;49.314;6.752;2022-12-18T02:31:58;100684.94;;;4.38;92.23
48352;BME280;34163;49.314;6.752;2022-12-18T02:34:25;100686.75;;;4.21;93.99
48352;BME280;34163;49.314;6.752;2022-12-18T02:36:51;100683.28;;;4.05;95.02
48352;BME280;34163;49.314;6.752;2022-12-18T02:39:18;100674.56;;;3.98;96.08
48352;BME280;34163;49.314;6.752;2022-12-18T02:41:45;100663.22;;;3.79;97.19
48352;BME280;34163;49.314;6.752;2022-12-18T02:44:11;100661.44;;;3.76;98.00
48352;BME280;34163;49.314;6.752;2022-12-18T02:46:38;100662.34;;;3.60;99.10
48352;BME280;34163;49.314;6.752;2022-12-18T02:51:50;100660.59;;;3.43;100.00
48352;BME280;34163;49.314;6.752;2022-12-18T02:54:20;100664.09;;;3.45;100.00
48352;BME280;34163;49.314;6.752;2022-12-18T02:56:50;100662.34;;;3.35;100.00
48352;BME280;34163;49.314;6.752;2022-12-18T02:59:17;100657.97;;;3.23;100.00
48352;BME280;34163;49.314;6.752;2022-12-18T03:02:09;100668.44;;;3.22;100.00
48352;BME280;34163;49.314;6.752;2022-12-18T03:04:43;100657.94;;;3.14;100.00
48352;BME280;34163;49.314;6.752;2022-12-18T03:07:10;100674.53;;;3.12;100.00
48352;BME280;34163;49.314;6.752;2022-12-18T03:09:41;100688.50;;;3.14;100.00
48352;BME280;34163;49.314;6.752;2022-12-18T03:12:10;100685.94;;;3.61;100.00
48352;BME280;34163;49.314;6.752;2022-12-18T03:14:47;100690.19;;;4.35;100.00
48352;BME280;34163;49.314;6.752;2022-12-18T03:17:14;100680.47;;;4.68;100.00
48352;BME280;34163;49.314;6.752;2022-12-18T03:19:42;100697.00;;;4.87;100.00
48352;BME280;34163;49.314;6.752;2022-12-18T03:22:08;100697.81;;;5.01;100.00
48352;BME280;34163;49.314;6.752;2022-12-18T03:24:34;100693.34;;;5.13;99.08
48352;BME280;34163;49.314;6.752;2022-12-18T03:27:05;100694.16;;;5.24;97.44
48352;BME280;34163;49.314;6.752;2022-12-18T03:32:07;100694.09;;;5.38;95.14
48352;BME280;34163;49.314;6.752;2022-12-18T03:34:35;100691.34;;;5.49;94.11
48352;BME280;34163;49.314;6.752;2022-12-18T03:37:02;100688.69;;;5.55;93.35
48352;BME280;34163;49.314;6.752;2022-12-18T03:39:28;100684.25;;;5.58;92.73
48352;BME280;34163;49.314;6.752;2022-12-18T03:41:55;100687.75;;;5.63;92.17
48352;BME280;34163;49.314;6.752;2022-12-18T03:44:36;100692.06;;;5.68;91.56
48352;BME280;34163;49.314;6.752;2022-12-18T03:47:14;100680.66;;;5.72;90.84
48352;BME280;34163;49.314;6.752;2022-12-18T03:52:26;100678.84;;;5.80;89.62
48352;BME280;34163;49.314;6.752;2022-12-18T03:54:54;100676.16;;;5.85;89.22
48352;BME280;34163;49.314;6.752;2022-12-18T03:57:23;100682.28;;;5.87;88.91
48352;BME280;34163;49.314;6.752;2022-12-18T03:59:50;100684.00;;;5.89;88.31
48352;BME280;34163;49.314;6.752;2022-12-18T04:02:18;100684.84;;;5.93;87.95
48352;BME280;34163;49.314;6.752;2022-12-18T04:04:43;100677.81;;;5.95;87.56
48352;BME280;34163;49.314;6.752;2022-12-18T04:07:10;100676.94;;;5.97;87.04
48352;BME280;34163;49.314;6.752;2022-12-18T04:09:35;100669.91;;;5.99;86.85
48352;BME280;34163;49.314;6.752;2022-12-18T04:12:01;100669.91;;;5.99;86.52
48352;BME280;34163;49.314;6.752;2022-12-18T04:14:26;100664.63;;;6.03;86.09
48352;BME280;34163;49.314;6.752;2022-12-18T04:16:52;100665.44;;;6.06;85.87
48352;BME280;34163;49.314;6.752;2022-12-18T04:19:17;100669.81;;;6.09;85.61
48352;BME280;34163;49.314;6.752;2022-12-18T04:21:42;100670.69;;;6.08;85.06
48352;BME280;34163;49.314;6.752;2022-12-18T04:24:07;100665.41;;;6.09;84.78
48352;BME280;34163;49.314;6.752;2022-12-18T04:26:33;100668.94;;;6.11;84.74
48352;BME280;34163;49.314;6.752;2022-12-18T04:28:58;100678.53;;;6.14;84.25
48352;BME280;34163;49.314;6.752;2022-12-18T04:31:24;100673.25;;;6.14;83.96
48352;BME280;34163;49.314;6.752;2022-12-18T04:33:49;100667.13;;;6.15;83.45
48352;BME280;34163;49.314;6.752;2022-12-18T04:36:14;100667.09;;;6.16;83.05
48352;BME280;34163;49.314;6.752;2022-12-18T14:02:15;100595.09;;;5.35;95.27
48352;BME280;34163;49.314;6.752;2022-12-18T14:13:36;100587.84;;;5.63;92.53
48352;BME280;34163;49.314;6.752;2022-12-18T14:35:36;100592.75;;;5.94;89.53
48352;BME280;34163;49.314;6.752;2022-12-18T15:03:54;100598.66;;;6.18;88.51
48352;BME280;34163;49.314;6.752;2022-12-18T15:06:43;100590.75;;;6.21;88.04
48352;BME280;34163;49.314;6.752;2022-12-18T15:12:42;100589.78;;;6.25;87.88
48352;BME280;34163;49.314;6.752;2022-12-18T15:15:49;100595.03;;;6.27;87.98
48352;BME280;34163;49.314;6.752;2022-12-18T15:18:53;100605.81;;;6.08;85.85
48352;BME280;34163;49.314;6.752;2022-12-18T15:21:28;100610.91;;;6.21;87.37
48352;BME280;34163;49.314;6.752;2022-12-18T15:23:56;100618.75;;;6.25;88.03
48352;BME280;34163;49.314;6.752;2022-12-18T15:29:23;100613.41;;;6.31;89.43
48352;BME280;34163;49.314;6.752;2022-12-18T15:32:01;100613.41;;;6.31;89.78
48352;BME280;34163;49.314;6.752;2022-12-18T15:37:42;100600.22;;;6.34;89.92
48352;BME280;34163;49.314;6.752;2022-12-18T15:40:24;100596.69;;;6.37;90.13
48352;BME280;34163;49.314;6.752;2022-12-18T15:52:02;100592.22;;;6.44;90.14
48352;BME280;34163;49.314;6.752;2022-12-18T15:54:23;100592.22;;;6.44;90.05
48352;BME280;34163;49.314;6.752;2022-12-18T16:03:11;100584.28;;;6.47;90.17
48352;BME280;34163;49.314;6.752;2022-12-18T16:08:52;100584.22;;;6.51;90.15
48352;BME280;34163;49.314;6.752;2022-12-18T16:11:21;100589.50;;;6.50;90.14
48352;BME280;34163;49.314;6.752;2022-12-18T16:14:21;100587.72;;;6.50;89.99
48352;BME280;34163;49.314;6.752;2022-12-18T16:20:04;100586.81;;;6.53;89.82
48352;BME280;34163;49.314;6.752;2022-12-18T16:22:42;100590.31;;;6.55;89.72
48352;BME280;34163;49.314;6.752;2022-12-18T16:25:14;100596.44;;;6.55;89.59
48352;BME280;34163;49.314;6.752;2022-12-18T16:27:50;100600.84;;;6.55;89.65
48352;BME280;34163;49.314;6.752;2022-12-18T16:30:16;100583.25;;;6.57;89.77
48352;BME280;34163;49.314;6.752;2022-12-18T16:32:53;100580.59;;;6.57;89.78
48352;BME280;34163;49.314;6.752;2022-12-18T16:35:18;100585.88;;;6.57;89.60
48352;BME280;34163;49.314;6.752;2022-12-18T16:37:47;100577.97;;;6.59;89.77
48352;BME280;34163;49.314;6.752;2022-12-18T16:40:36;100588.47;;;6.60;89.90
48352;BME280;34163;49.314;6.752;2022-12-18T16:52:16;100598.38;;;4.32;97.53
48352;BME280;34163;49.314;6.752;2022-12-18T16:57:31;100596.75;;;3.95;100.00
48352;BME280;34163;49.314;6.752;2022-12-18T16:59:58;100597.66;;;3.87;100.00
48352;BME280;34163;49.314;6.752;2022-12-18T17:02:31;100599.44;;;3.69;100.00
48352;BME280;34163;49.314;6.752;2022-12-18T17:05:03;100594.19;;;3.58;100.00
48352;BME280;34163;49.314;6.752;2022-12-18T17:07:31;100594.22;;;3.48;100.00
48352;BME280;34163;49.314;6.752;2022-12-18T17:15:52;100583.75;;;3.26;100.00
48352;BME280;34163;49.314;6.752;2022-12-18T17:18:26;100588.13;;;3.21;100.00
48352;BME280;34163;49.314;6.752;2022-12-18T17:21:03;100594.22;;;3.15;100.00
48352;BME280;34163;49.314;6.752;2022-12-18T17:30:00;100562.78;;;2.98;100.00
48352;BME280;34163;49.314;6.752;2022-12-18T17:35:57;100561.00;;;3.65;100.00
48352;BME280;34163;49.314;6.752;2022-12-18T17:38:48;100555.53;;;4.33;100.00
48352;BME280;34163;49.314;6.752;2022-12-18T17:52:27;100543.53;;;5.23;100.00
48352;BME280;34163;49.314;6.752;2022-12-18T17:58:07;100539.00;;;5.39;100.00
48352;BME280;34163;49.314;6.752;2022-12-18T18:00:49;100540.66;;;5.48;100.00
48352;BME280;34163;49.314;6.752;2022-12-18T18:03:34;100544.09;;;5.53;100.00
48352;BME280;34163;49.314;6.752;2022-12-18T18:06:38;100542.28;;;5.60;100.00
48352;BME280;34163;49.314;6.752;2022-12-18T18:09:26;100524.72;;;5.63;100.00
48352;BME280;34163;49.314;6.752;2022-12-18T18:11:57;100526.38;;;5.71;100.00
48352;BME280;34163;49.314;6.752;2022-12-18T18:14:41;100528.13;;;5.73;100.00
48352;BME280;34163;49.314;6.752;2022-12-18T18:20:27;100521.00;;;5.83;100.00
48352;BME280;34163;49.314;6.752;2022-12-18T18:23:15;100511.31;;;5.85;99.87
48352;BME280;34163;49.314;6.752;2022-12-18T18:25:48;100520.94;;;5.88;99.44
48352;BME280;34163;49.314;6.752;2022-12-18T18:28:34;100513.00;;;5.92;99.10
48352;BME280;34163;49.314;6.752;2022-12-18T18:31:19;100509.44;;;5.95;99.03
48352;BME280;34163;49.314;6.752;2022-12-18T18:36:43;100504.13;;;6.01;98.43
48352;BME280;34163;49.314;6.752;2022-12-18T18:39:10;100510.28;;;6.03;98.30
48352;BME280;34163;49.314;6.752;2022-12-18T18:41:44;100504.94;;;6.06;98.09
48352;BME280;34163;49.314;6.752;2022-12-18T18:50:34;100513.63;;;6.16;97.75
48352;BME280;34163;49.314;6.752;2022-12-18T18:52:59;100511.00;;;6.16;97.93
48352;BME280;34163;49.314;6.752;2022-12-18T18:55:31;100510.97;;;6.17;97.62
48352;BME280;34163;49.314;6.752;2022-12-18T19:00:56;100503.06;;;6.19;97.54
48352;BME280;34163;49.314;6.752;2022-12-18T19:03:22;100503.88;;;6.23;97.55
48352;BME280;34163;49.314;6.752;2022-12-18T19:05:53;100506.50;;;6.24;97.30
48352;BME280;34163;49.314;6.752;2022-12-18T19:08:26;100505.56;;;6.27;97.35
48352;BME280;34163;49.314;6.752;2022-12-18T19:14:13;100491.50;;;6.29;97.17
48352;BME280;34163;49.314;6.752;2022-12-18T19:19:59;100496.72;;;6.32;97.12
48352;BME280;34163;49.314;6.752;2022-12-18T19:22:44;100498.41;;;6.35;97.16
48352;BME280;34163;49.314;6.752;2022-12-18T19:25:12;100497.50;;;6.38;96.98
48352;BME280;34163;49.314;6.752;2022-12-18T19:46:26;100483.38;;;6.45;96.54
48352;BME280;34163;49.314;6.752;2022-12-18T20:01:47;100480.63;;;6.51;96.26
48352;BME280;34163;49.314;6.752;2022-12-18T20:04:22;100470.06;;;6.54;96.06
48352;BME280;34163;49.314;6.752;2022-12-18T20:10:13;100462.16;;;6.54;96.05
48352;BME280;34163;49.314;6.752;2022-12-18T20:21:53;100470.56;;;4.46;100.00
48352;BME280;34163;49.314;6.752;2022-12-18T20:24:22;100468.94;;;4.30;100.00
48352;BME280;34163;49.314;6.752;2022-12-18T20:26:54;100471.69;;;4.08;100.00
48352;BME280;34163;49.314;6.752;2022-12-18T20:32:34;100488.41;;;3.82;100.00
48352;BME280;34163;49.314;6.752;2022-12-18T20:38:22;100482.38;;;3.60;100.00
48352;BME280;34163;49.314;6.752;2022-12-18T20:44:15;100484.22;;;3.38;100.00
48352;BME280;34163;49.314;6.752;2022-12-18T20:46:41;100492.94;;;3.36;100.00
48352;BME280;34163;49.314;6.752;2022-12-18T20:49:15;100488.56;;;3.30;100.00
48352;BME280;34163;49.314;6.752;2022-12-18T20:51:50;100496.41;;;3.27;100.00
48352;BME280;34163;49.314;6.752;2022-12-18T20:57:24;100479.00;;;3.11;100.00
48352;BME280;34163;49.314;6.752;2022-12-18T21:00:12;100484.25;;;2.98;100.00
48352;BME280;34163;49.314;6.752;2022-12-18T21:02:40;100475.53;;;2.99;100.00
48352;BME280;34163;49.314;6.752;2022-12-18T21:05:15;100481.66;;;2.94;100.00
48352;BME280;34163;49.314;6.752;2022-12-18T21:08:01;100480.75;;;2.93;100.00
48352;BME280;34163;49.314;6.752;2022-12-18T21:10:50;100485.81;;;3.79;100.00
48352;BME280;34163;49.314;6.752;2022-12-18T21:13:36;100472.44;;;4.32;100.00
48352;BME280;34163;49.314;6.752;2022-12-18T21:16:06;100472.19;;;4.66;100.00
48352;BME280;34163;49.314;6.752;2022-12-18T21:18:31;100479.03;;;4.87;100.00
48352;BME280;34163;49.314;6.752;2022-12-18T21:20:59;100472.78;;;5.00;100.00
48352;BME280;34163;49.314;6.752;2022-12-18T21:23:24;100478.81;;;5.12;100.00
48352;BME280;34163;49.314;6.752;2022-12-18T21:25:50;100472.59;;;5.20;100.00
48352;BME280;34163;49.314;6.752;2022-12-18T21:28:18;100475.13;;;5.30;100.00
48352;BME280;34163;49.314;6.752;2022-12-18T21:30:43;100471.56;;;5.35;100.00
48352;BME280;34163;49.314;6.752;2022-12-18T21:33:11;100472.38;;;5.42;100.00
48352;BME280;34163;49.314;6.752;2022-12-18T21:35:37;100479.31;;;5.49;100.00
48352;BME280;34163;49.314;6.752;2022-12-18T21:38:02;100474.84;;;5.57;100.00
48352;BME280;34163;49.314;6.752;2022-12-18T21:40:37;100479.16;;;5.61;100.00
48352;BME280;34163;49.314;6.752;2022-12-18T21:43:07;100481.75;;;5.64;100.00
48352;BME280;34163;49.314;6.752;2022-12-18T21:45:55;100481.69;;;5.71;100.00
48352;BME280;34163;49.314;6.752;2022-12-18T21:48:20;100485.13;;;5.74;100.00
48352;BME280;34163;49.314;6.752;2022-12-18T21:50:53;100478.09;;;5.78;100.00
48352;BME280;34163;49.314;6.752;2022-12-18T21:53:18;100477.16;;;5.82;100.00
48352;BME280;34163;49.314;6.752;2022-12-18T21:55:43;100480.66;;;5.86;100.00
48352;BME280;34163;49.314;6.752;2022-12-18T21:58:12;100478.84;;;5.89;100.00
48352;BME280;34163;49.314;6.752;2022-12-18T22:00:37;100470.91;;;5.92;100.00
48352;BME280;34163;49.314;6.752;2022-12-18T22:03:02;100477.88;;;5.96;100.00
48352;BME280;34163;49.314;6.752;2022-12-18T22:05:38;100469.09;;;5.99;100.00
48352;BME280;34163;49.314;6.752;2022-12-18T22:08:05;100463.81;;;6.02;100.00
48352;BME280;34163;49.314;6.752;2022-12-18T22:10:34;100462.88;;;6.05;100.00
48352;BME280;34163;49.314;6.752;2022-12-18T22:12:59;100469.00;;;6.07;100.00
48352;BME280;34163;49.314;6.752;2022-12-18T22:15:35;100470.69;;;6.09;100.00
48352;BME280;34163;49.314;6.752;2022-12-18T22:18:00;100474.22;;;6.11;100.00
48352;BME280;34163;49.314;6.752;2022-12-18T22:20:38;100469.75;;;6.15;100.00
48352;BME280;34163;49.314;6.752;2022-12-18T22:23:06;100470.59;;;6.17;100.00
48352;BME280;34163;49.314;6.752;2022-12-18T22:25:41;100469.72;;;6.18;100.00
48352;BME280;34163;49.314;6.752;2022-12-18T22:31:33;100460.88;;;6.22;100.00
48352;BME280;34163;49.314;6.752;2022-12-18T22:37:08;100461.69;;;6.27;100.00
48352;BME280;34163;49.314;6.752;2022-12-18T22:39:33;100461.69;;;6.27;100.00
48352;BME280;34163;49.314;6.752;2022-12-18T22:42:06;100460.78;;;6.30;100.00
48352;BME280;34163;49.314;6.752;2022-12-18T22:44:40;100463.38;;;6.31;100.00
48352;BME280;34163;49.314;6.752;2022-12-18T22:47:51;100453.66;;;6.35;100.00
48352;BME280;34163;49.314;6.752;2022-12-18T22:50:29;100447.53;;;6.34;100.00
48352;BME280;34163;49.314;6.752;2022-12-18T22:53:07;100451.91;;;6.37;100.00
48352;BME280;34163;49.314;6.752;2022-12-18T22:56:06;100448.34;;;6.40;100.00
48352;BME280;34163;49.314;6.752;2022-12-18T22:58:51;100446.56;;;6.43;100.00
48352;BME280;34163;49.314;6.752;2022-12-18T23:01:37;100445.66;;;6.43;100.00
48352;BME280;34163;49.314;6.752;2022-12-18T23:04:07;100442.97;;;6.46;100.00
48352;BME280;34163;49.314;6.752;2022-12-18T23:06:41;100443.91;;;6.45;100.00
48352;BME280;34163;49.314;6.752;2022-12-18T23:09:15;100441.22;;;6.48;100.00
48352;BME280;34163;49.314;6.752;2022-12-18T23:12:03;100433.31;;;6.48;100.00
48352;BME280;34163;49.314;6.752;2022-12-18T23:14:40;100430.59;;;6.51;100.00
48352;BME280;34163;49.314;6.752;2022-12-18T23:20:33;100421.81;;;6.52;100.00
48352;BME280;34163;49.314;6.752;2022-12-18T23:53:35;100404.50;;;3.82;100.00
48352;BME280;34163;49.314;6.752;2022-12-18T23:56:22;100401.09;;;3.70;100.00
